createdAt,value
2019-05-21T00:06:19.937Z,59.60
2019-05-21T00:21:09.773Z,60.20
2019-05-21T00:34:43.144Z,60.20
2019-05-21T00:47:55.060Z,60.50
2019-05-21T01:01:18.915Z,60.40
2019-05-21T01:14:40.733Z,60.10
2019-05-21T01:28:03.664Z,59.80
2019-05-21T01:54:28.041Z,59.80
2019-05-21T02:07:35.231Z,60.10
2019-05-21T02:20:42.414Z,59.90
2019-05-21T02:33:49.787Z,59.90
2019-05-21T02:46:56.913Z,59.70
2019-05-21T03:00:04.068Z,59.80
2019-05-21T03:13:27.735Z,59.80
2019-05-21T03:39:52.163Z,60.50
2019-05-21T03:52:59.298Z,59.80
2019-05-21T04:06:06.452Z,59.80
2019-05-21T04:19:13.615Z,59.80
2019-05-21T04:32:20.766Z,59.90
2019-05-21T05:13:20.355Z,59.80
2019-05-21T05:26:43.305Z,59.90
2019-05-21T05:40:06.097Z,61.60
2019-05-21T05:53:28.807Z,63.10
2019-05-21T06:06:51.648Z,63.70
2019-05-21T06:20:14.709Z,64.70
2019-05-21T06:47:00.121Z,62.90
2019-05-21T07:00:23.002Z,62.90
2019-05-21T07:13:45.775Z,62.90
2019-05-21T07:27:08.448Z,62.20
2019-05-21T07:40:31.454Z,62.20
2019-05-21T07:53:54.208Z,64.50
2019-05-21T08:07:17.049Z,65.80
2019-05-21T08:20:39.736Z,63.40
2019-05-21T08:34:02.524Z,62.80
2019-05-21T08:47:25.588Z,62.60
2019-05-21T09:00:48.161Z,62.40
2019-05-21T09:14:11.009Z,62.40
2019-05-21T09:27:33.943Z,62.40
2019-05-21T09:40:57.014Z,62.10
2019-05-21T09:54:19.656Z,63.30
2019-05-21T10:07:42.283Z,62.20
2019-05-21T10:21:05.245Z,62.80
2019-05-21T10:48:02.802Z,62.10
2019-05-21T11:20:32.386Z,65.30
2019-05-21T11:33:39.580Z,64.80
2019-05-21T11:46:46.761Z,65.20
2019-05-21T12:13:51.736Z,63.40
2019-05-21T12:27:14.558Z,61.90
2019-05-21T13:21:34.975Z,62.00
2019-05-21T13:47:59.305Z,61.90
2019-05-21T14:14:17.204Z,62.80
2019-05-21T14:27:43.967Z,63.80
2019-05-21T15:12:59.674Z,65.10
2019-05-21T15:26:22.420Z,65.10
2019-05-21T16:07:20.027Z,63.30
2019-05-21T16:34:17.921Z,64.30
2019-05-21T16:47:25.097Z,64.50
2019-05-21T17:00:32.335Z,63.10
2019-05-21T17:13:39.582Z,61.70
2019-05-21T17:26:47.519Z,61.90
2019-05-21T17:53:12.236Z,61.60
2019-05-21T18:06:19.639Z,63.10
2019-05-21T18:19:26.848Z,63.70
2019-05-21T18:32:34.112Z,63.20
2019-05-21T18:45:41.357Z,61.50
2019-05-21T18:59:05.569Z,61.60
2019-05-21T19:12:36.907Z,61.70
2019-05-21T19:25:51.239Z,61.70
2019-05-21T20:05:55.115Z,61.20
2019-05-21T20:55:08.972Z,60.50
2019-05-21T21:21:33.496Z,59.80
2019-05-21T21:34:40.814Z,59.50
2019-05-21T21:47:48.013Z,59.20
2019-05-21T22:00:55.371Z,58.90
2019-05-21T22:14:02.582Z,58.90
2019-05-21T22:27:26.571Z,58.80
2019-05-21T22:40:49.416Z,58.70
2019-05-21T22:54:12.203Z,58.50
2019-05-21T23:07:35.052Z,58.40
2019-05-21T23:33:59.628Z,58.20
2019-05-21T23:47:07.004Z,58.20
